sensor_id;sensor_type;location;lat;lon;timestamp;P1;durP1;ratioP1;P2;durP2;ratioP2
53775;SDS011;44276;49.534;6.378;2022-07-06T00:01:13;4.97;;;1.48;;
53775;SDS011;44276;49.534;6.378;2022-07-06T00:03:42;3.85;;;1.38;;
53775;SDS011;44276;49.534;6.378;2022-07-06T00:06:10;1.77;;;1.35;;
53775;SDS011;44276;49.534;6.378;2022-07-06T00:08:38;9.63;;;1.23;;
53775;SDS011;44276;49.534;6.378;2022-07-06T00:11:08;2.90;;;1.50;;
53775;SDS011;44276;49.534;6.378;2022-07-06T00:13:37;5.13;;;1.33;;
53775;SDS011;44276;49.534;6.378;2022-07-06T00:16:05;1.55;;;1.00;;
53775;SDS011;44276;49.534;6.378;2022-07-06T00:18:33;3.13;;;1.17;;
53775;SDS011;44276;49.534;6.378;2022-07-06T00:21:02;2.25;;;1.63;;
53775;SDS011;44276;49.534;6.378;2022-07-06T00:23:30;5.53;;;1.58;;
53775;SDS011;44276;49.534;6.378;2022-07-06T00:25:58;2.30;;;0.95;;
53775;SDS011;44276;49.534;6.378;2022-07-06T00:28:28;1.13;;;1.02;;
53775;SDS011;44276;49.534;6.378;2022-07-06T00:30:56;3.60;;;0.85;;
53775;SDS011;44276;49.534;6.378;2022-07-06T00:33:25;4.30;;;1.20;;
53775;SDS011;44276;49.534;6.378;2022-07-06T00:35:53;1.67;;;1.20;;
53775;SDS011;44276;49.534;6.378;2022-07-06T00:38:21;1.63;;;1.10;;
53775;SDS011;44276;49.534;6.378;2022-07-06T00:40:50;4.43;;;1.30;;
53775;SDS011;44276;49.534;6.378;2022-07-06T00:43:18;2.35;;;1.20;;
53775;SDS011;44276;49.534;6.378;2022-07-06T00:45:47;3.13;;;1.10;;
53775;SDS011;44276;49.534;6.378;2022-07-06T00:48:16;3.92;;;1.08;;
53775;SDS011;44276;49.534;6.378;2022-07-06T00:50:44;1.98;;;1.33;;
53775;SDS011;44276;49.534;6.378;2022-07-06T00:53:13;3.50;;;1.20;;
53775;SDS011;44276;49.534;6.378;2022-07-06T00:55:41;4.15;;;1.65;;
53775;SDS011;44276;49.534;6.378;2022-07-06T00:58:10;4.35;;;1.58;;
53775;SDS011;44276;49.534;6.378;2022-07-06T01:00:38;1.02;;;0.80;;
53775;SDS011;44276;49.534;6.378;2022-07-06T01:03:12;4.07;;;1.10;;
53775;SDS011;44276;49.534;6.378;2022-07-06T01:05:40;7.75;;;1.42;;
53775;SDS011;44276;49.534;6.378;2022-07-06T01:08:08;1.48;;;1.17;;
53775;SDS011;44276;49.534;6.378;2022-07-06T01:10:37;3.10;;;1.20;;
53775;SDS011;44276;49.534;6.378;2022-07-06T01:13:05;3.65;;;2.30;;
53775;SDS011;44276;49.534;6.378;2022-07-06T01:15:33;3.75;;;1.33;;
53775;SDS011;44276;49.534;6.378;2022-07-06T01:18:02;7.03;;;1.30;;
53775;SDS011;44276;49.534;6.378;2022-07-06T01:20:32;4.03;;;1.38;;
53775;SDS011;44276;49.534;6.378;2022-07-06T01:23:00;3.95;;;1.58;;
53775;SDS011;44276;49.534;6.378;2022-07-06T01:25:28;7.03;;;2.00;;
53775;SDS011;44276;49.534;6.378;2022-07-06T01:27:57;3.88;;;1.65;;
53775;SDS011;44276;49.534;6.378;2022-07-06T01:30:25;9.57;;;1.38;;
53775;SDS011;44276;49.534;6.378;2022-07-06T01:32:53;5.03;;;2.35;;
53775;SDS011;44276;49.534;6.378;2022-07-06T01:35:22;1.63;;;1.50;;
53775;SDS011;44276;49.534;6.378;2022-07-06T01:37:55;3.40;;;1.50;;
53775;SDS011;44276;49.534;6.378;2022-07-06T01:40:23;4.15;;;1.88;;
53775;SDS011;44276;49.534;6.378;2022-07-06T01:42:51;2.22;;;1.63;;
53775;SDS011;44276;49.534;6.378;2022-07-06T01:45:19;2.95;;;1.38;;
53775;SDS011;44276;49.534;6.378;2022-07-06T01:47:47;7.28;;;1.40;;
53775;SDS011;44276;49.534;6.378;2022-07-06T01:50:15;2.40;;;1.55;;
53775;SDS011;44276;49.534;6.378;2022-07-06T01:52:43;7.63;;;2.45;;
53775;SDS011;44276;49.534;6.378;2022-07-06T01:55:13;5.88;;;1.60;;
53775;SDS011;44276;49.534;6.378;2022-07-06T01:57:41;4.22;;;2.15;;
53775;SDS011;44276;49.534;6.378;2022-07-06T02:00:09;7.38;;;1.83;;
53775;SDS011;44276;49.534;6.378;2022-07-06T02:02:38;4.93;;;2.40;;
53775;SDS011;44276;49.534;6.378;2022-07-06T02:05:06;4.15;;;1.90;;
53775;SDS011;44276;49.534;6.378;2022-07-06T02:07:35;3.70;;;1.50;;
53775;SDS011;44276;49.534;6.378;2022-07-06T02:10:04;4.00;;;1.20;;
53775;SDS011;44276;49.534;6.378;2022-07-06T02:12:34;2.05;;;1.30;;
53775;SDS011;44276;49.534;6.378;2022-07-06T02:15:02;1.42;;;1.20;;
53775;SDS011;44276;49.534;6.378;2022-07-06T02:17:30;3.72;;;1.70;;
53775;SDS011;44276;49.534;6.378;2022-07-06T02:19:59;7.35;;;2.00;;
53775;SDS011;44276;49.534;6.378;2022-07-06T02:22:27;5.93;;;1.60;;
53775;SDS011;44276;49.534;6.378;2022-07-06T02:24:55;4.57;;;1.55;;
53775;SDS011;44276;49.534;6.378;2022-07-06T02:27:23;4.68;;;1.45;;
53775;SDS011;44276;49.534;6.378;2022-07-06T02:29:53;7.30;;;1.83;;
53775;SDS011;44276;49.534;6.378;2022-07-06T02:32:21;2.95;;;1.35;;
53775;SDS011;44276;49.534;6.378;2022-07-06T02:34:49;3.47;;;1.77;;
53775;SDS011;44276;49.534;6.378;2022-07-06T02:37:18;2.60;;;1.27;;
53775;SDS011;44276;49.534;6.378;2022-07-06T02:39:46;3.45;;;1.30;;
53775;SDS011;44276;49.534;6.378;2022-07-06T02:42:14;5.45;;;2.28;;
53775;SDS011;44276;49.534;6.378;2022-07-06T02:44:43;3.67;;;1.50;;
53775;SDS011;44276;49.534;6.378;2022-07-06T02:47:12;5.35;;;2.15;;
53775;SDS011;44276;49.534;6.378;2022-07-06T02:49:40;4.70;;;1.80;;
53775;SDS011;44276;49.534;6.378;2022-07-06T02:52:08;3.42;;;1.80;;
53775;SDS011;44276;49.534;6.378;2022-07-06T02:54:36;4.30;;;2.30;;
53775;SDS011;44276;49.534;6.378;2022-07-06T02:57:04;5.70;;;2.38;;
53775;SDS011;44276;49.534;6.378;2022-07-06T02:59:32;4.65;;;1.60;;
53775;SDS011;44276;49.534;6.378;2022-07-06T03:02:04;3.45;;;1.77;;
53775;SDS011;44276;49.534;6.378;2022-07-06T03:04:34;4.65;;;1.95;;
53775;SDS011;44276;49.534;6.378;2022-07-06T03:07:02;5.28;;;1.77;;
53775;SDS011;44276;49.534;6.378;2022-07-06T03:09:31;14.07;;;1.90;;
53775;SDS011;44276;49.534;6.378;2022-07-06T03:11:59;3.63;;;2.35;;
53775;SDS011;44276;49.534;6.378;2022-07-06T03:14:27;8.35;;;2.35;;
53775;SDS011;44276;49.534;6.378;2022-07-06T03:16:55;3.17;;;1.85;;
53775;SDS011;44276;49.534;6.378;2022-07-06T03:19:23;3.88;;;2.03;;
53775;SDS011;44276;49.534;6.378;2022-07-06T03:21:53;2.47;;;1.98;;
53775;SDS011;44276;49.534;6.378;2022-07-06T03:24:21;2.72;;;2.40;;
53775;SDS011;44276;49.534;6.378;2022-07-06T03:26:49;4.53;;;1.80;;
53775;SDS011;44276;49.534;6.378;2022-07-06T03:29:17;8.10;;;2.45;;
53775;SDS011;44276;49.534;6.378;2022-07-06T03:31:48;2.60;;;2.05;;
53775;SDS011;44276;49.534;6.378;2022-07-06T03:34:16;3.55;;;2.25;;
53775;SDS011;44276;49.534;6.378;2022-07-06T03:36:44;3.60;;;2.55;;
53775;SDS011;44276;49.534;6.378;2022-07-06T03:39:13;3.33;;;2.20;;
53775;SDS011;44276;49.534;6.378;2022-07-06T03:41:42;5.47;;;2.55;;
53775;SDS011;44276;49.534;6.378;2022-07-06T03:44:10;7.70;;;2.85;;
53775;SDS011;44276;49.534;6.378;2022-07-06T03:46:38;4.93;;;2.88;;
53775;SDS011;44276;49.534;6.378;2022-07-06T03:49:06;3.90;;;3.03;;
53775;SDS011;44276;49.534;6.378;2022-07-06T03:51:34;3.80;;;2.25;;
53775;SDS011;44276;49.534;6.378;2022-07-06T03:54:03;8.60;;;3.53;;
53775;SDS011;44276;49.534;6.378;2022-07-06T03:56:33;4.78;;;2.72;;
53775;SDS011;44276;49.534;6.378;2022-07-06T03:59:04;5.13;;;2.13;;
53775;SDS011;44276;49.534;6.378;2022-07-06T04:01:32;5.38;;;2.88;;
53775;SDS011;44276;49.534;6.378;2022-07-06T04:04:00;3.40;;;2.33;;
53775;SDS011;44276;49.534;6.378;2022-07-06T04:06:29;7.88;;;3.10;;
53775;SDS011;44276;49.534;6.378;2022-07-06T04:08:57;4.07;;;2.45;;
53775;SDS011;44276;49.534;6.378;2022-07-06T04:11:25;4.35;;;2.72;;
53775;SDS011;44276;49.534;6.378;2022-07-06T04:13:55;3.03;;;2.45;;
53775;SDS011;44276;49.534;6.378;2022-07-06T04:16:23;4.60;;;2.08;;
53775;SDS011;44276;49.534;6.378;2022-07-06T04:18:51;7.88;;;2.85;;
53775;SDS011;44276;49.534;6.378;2022-07-06T04:21:19;2.88;;;2.35;;
53775;SDS011;44276;49.534;6.378;2022-07-06T04:23:47;3.13;;;1.95;;
53775;SDS011;44276;49.534;6.378;2022-07-06T04:26:16;6.32;;;2.15;;
53775;SDS011;44276;49.534;6.378;2022-07-06T04:28:44;3.38;;;2.17;;
53775;SDS011;44276;49.534;6.378;2022-07-06T04:31:13;3.35;;;2.00;;
53775;SDS011;44276;49.534;6.378;2022-07-06T04:33:42;4.80;;;2.67;;
53775;SDS011;44276;49.534;6.378;2022-07-06T04:36:10;3.97;;;2.33;;
53775;SDS011;44276;49.534;6.378;2022-07-06T04:38:38;2.58;;;1.92;;
53775;SDS011;44276;49.534;6.378;2022-07-06T04:41:07;4.13;;;2.25;;
53775;SDS011;44276;49.534;6.378;2022-07-06T04:43:35;6.32;;;2.50;;
53775;SDS011;44276;49.534;6.378;2022-07-06T04:46:03;9.75;;;2.88;;
53775;SDS011;44276;49.534;6.378;2022-07-06T04:48:33;4.40;;;1.85;;
53775;SDS011;44276;49.534;6.378;2022-07-06T04:51:05;2.53;;;2.05;;
53775;SDS011;44276;49.534;6.378;2022-07-06T04:53:33;4.20;;;2.08;;
53775;SDS011;44276;49.534;6.378;2022-07-06T04:56:03;4.43;;;2.70;;
53775;SDS011;44276;49.534;6.378;2022-07-06T04:58:31;4.43;;;2.15;;
53775;SDS011;44276;49.534;6.378;2022-07-06T05:00:59;7.70;;;2.25;;
53775;SDS011;44276;49.534;6.378;2022-07-06T05:03:28;2.05;;;1.65;;
53775;SDS011;44276;49.534;6.378;2022-07-06T05:05:57;7.82;;;2.60;;
53775;SDS011;44276;49.534;6.378;2022-07-06T05:08:25;9.32;;;2.42;;
53775;SDS011;44276;49.534;6.378;2022-07-06T05:10:53;11.38;;;3.05;;
53775;SDS011;44276;49.534;6.378;2022-07-06T05:13:21;3.45;;;2.65;;
53775;SDS011;44276;49.534;6.378;2022-07-06T05:15:50;5.95;;;2.08;;
53775;SDS011;44276;49.534;6.378;2022-07-06T05:18:18;4.50;;;1.88;;
53775;SDS011;44276;49.534;6.378;2022-07-06T05:20:46;5.20;;;1.75;;
53775;SDS011;44276;49.534;6.378;2022-07-06T05:23:16;11.15;;;2.53;;
53775;SDS011;44276;49.534;6.378;2022-07-06T05:25:44;6.25;;;2.10;;
53775;SDS011;44276;49.534;6.378;2022-07-06T05:28:12;2.20;;;1.40;;
53775;SDS011;44276;49.534;6.378;2022-07-06T05:30:40;4.05;;;1.80;;
53775;SDS011;44276;49.534;6.378;2022-07-06T05:33:08;1.65;;;1.17;;
53775;SDS011;44276;49.534;6.378;2022-07-06T05:35:36;5.20;;;1.60;;
53775;SDS011;44276;49.534;6.378;2022-07-06T05:38:18;1.52;;;1.25;;
53775;SDS011;44276;49.534;6.378;2022-07-06T05:40:47;2.55;;;1.33;;
53775;SDS011;44276;49.534;6.378;2022-07-06T05:43:16;3.78;;;2.00;;
53775;SDS011;44276;49.534;6.378;2022-07-06T05:45:44;5.13;;;1.17;;
53775;SDS011;44276;49.534;6.378;2022-07-06T05:48:12;2.83;;;1.40;;
53775;SDS011;44276;49.534;6.378;2022-07-06T05:50:58;5.53;;;1.52;;
53775;SDS011;44276;49.534;6.378;2022-07-06T05:53:28;6.43;;;1.38;;
53775;SDS011;44276;49.534;6.378;2022-07-06T05:55:56;5.18;;;1.60;;
53775;SDS011;44276;49.534;6.378;2022-07-06T05:58:24;8.35;;;1.65;;
53775;SDS011;44276;49.534;6.378;2022-07-06T06:00:53;4.53;;;1.40;;
53775;SDS011;44276;49.534;6.378;2022-07-06T06:03:21;2.95;;;1.48;;
53775;SDS011;44276;49.534;6.378;2022-07-06T06:05:50;3.88;;;1.80;;
53775;SDS011;44276;49.534;6.378;2022-07-06T06:08:18;4.40;;;1.45;;
53775;SDS011;44276;49.534;6.378;2022-07-06T06:10:48;2.45;;;0.95;;
53775;SDS011;44276;49.534;6.378;2022-07-06T06:13:16;6.25;;;2.00;;
53775;SDS011;44276;49.534;6.378;2022-07-06T06:15:44;2.63;;;1.38;;
53775;SDS011;44276;49.534;6.378;2022-07-06T06:18:13;10.55;;;1.52;;
53775;SDS011;44276;49.534;6.378;2022-07-06T06:20:43;4.60;;;1.45;;
53775;SDS011;44276;49.534;6.378;2022-07-06T06:23:12;3.85;;;1.52;;
53775;SDS011;44276;49.534;6.378;2022-07-06T06:25:41;3.97;;;1.42;;
53775;SDS011;44276;49.534;6.378;2022-07-06T06:28:10;4.78;;;1.00;;
53775;SDS011;44276;49.534;6.378;2022-07-06T06:30:39;2.67;;;1.13;;
53775;SDS011;44276;49.534;6.378;2022-07-06T06:33:08;6.38;;;1.10;;
53775;SDS011;44276;49.534;6.378;2022-07-06T06:35:41;5.65;;;1.58;;
53775;SDS011;44276;49.534;6.378;2022-07-06T06:38:11;3.40;;;1.27;;
53775;SDS011;44276;49.534;6.378;2022-07-06T06:40:40;2.13;;;0.98;;
53775;SDS011;44276;49.534;6.378;2022-07-06T06:43:09;11.38;;;0.95;;
53775;SDS011;44276;49.534;6.378;2022-07-06T06:45:38;2.85;;;1.23;;
53775;SDS011;44276;49.534;6.378;2022-07-06T06:48:07;2.65;;;1.40;;
53775;SDS011;44276;49.534;6.378;2022-07-06T06:50:42;3.72;;;1.13;;
53775;SDS011;44276;49.534;6.378;2022-07-06T06:53:10;5.00;;;1.05;;
53775;SDS011;44276;49.534;6.378;2022-07-06T06:55:38;5.07;;;0.95;;
53775;SDS011;44276;49.534;6.378;2022-07-06T06:58:07;3.88;;;1.90;;
53775;SDS011;44276;49.534;6.378;2022-07-06T07:00:36;6.72;;;0.88;;
53775;SDS011;44276;49.534;6.378;2022-07-06T07:03:05;3.05;;;1.27;;
53775;SDS011;44276;49.534;6.378;2022-07-06T07:05:33;2.25;;;1.30;;
53775;SDS011;44276;49.534;6.378;2022-07-06T07:08:01;6.80;;;1.80;;
53775;SDS011;44276;49.534;6.378;2022-07-06T07:10:30;2.72;;;1.15;;
53775;SDS011;44276;49.534;6.378;2022-07-06T07:12:59;5.68;;;1.15;;
53775;SDS011;44276;49.534;6.378;2022-07-06T07:15:27;6.47;;;1.38;;
53775;SDS011;44276;49.534;6.378;2022-07-06T07:17:57;3.05;;;0.75;;
53775;SDS011;44276;49.534;6.378;2022-07-06T07:20:25;8.05;;;2.28;;
53775;SDS011;44276;49.534;6.378;2022-07-06T07:22:56;3.08;;;1.08;;
53775;SDS011;44276;49.534;6.378;2022-07-06T07:25:24;3.22;;;1.00;;
53775;SDS011;44276;49.534;6.378;2022-07-06T07:27:52;2.85;;;0.80;;
53775;SDS011;44276;49.534;6.378;2022-07-06T07:30:21;3.67;;;0.90;;
53775;SDS011;44276;49.534;6.378;2022-07-06T07:32:50;6.18;;;1.70;;
53775;SDS011;44276;49.534;6.378;2022-07-06T07:35:19;3.13;;;1.00;;
53775;SDS011;44276;49.534;6.378;2022-07-06T07:37:47;3.45;;;0.85;;
53775;SDS011;44276;49.534;6.378;2022-07-06T07:40:16;2.13;;;1.20;;
53775;SDS011;44276;49.534;6.378;2022-07-06T07:42:44;2.60;;;1.13;;
53775;SDS011;44276;49.534;6.378;2022-07-06T07:45:13;1.83;;;0.80;;
53775;SDS011;44276;49.534;6.378;2022-07-06T07:47:41;2.00;;;0.90;;
53775;SDS011;44276;49.534;6.378;2022-07-06T07:50:09;2.65;;;0.85;;
53775;SDS011;44276;49.534;6.378;2022-07-06T07:52:40;2.67;;;1.17;;
53775;SDS011;44276;49.534;6.378;2022-07-06T07:55:08;7.15;;;0.93;;
53775;SDS011;44276;49.534;6.378;2022-07-06T07:57:57;3.72;;;0.90;;
53775;SDS011;44276;49.534;6.378;2022-07-06T08:00:25;3.00;;;1.10;;
53775;SDS011;44276;49.534;6.378;2022-07-06T08:02:55;2.15;;;1.08;;
53775;SDS011;44276;49.534;6.378;2022-07-06T08:05:23;3.42;;;1.15;;
53775;SDS011;44276;49.534;6.378;2022-07-06T08:07:53;2.83;;;1.02;;
53775;SDS011;44276;49.534;6.378;2022-07-06T08:10:21;2.25;;;0.85;;
53775;SDS011;44276;49.534;6.378;2022-07-06T08:12:49;1.77;;;0.70;;
53775;SDS011;44276;49.534;6.378;2022-07-06T08:15:18;2.83;;;0.85;;
53775;SDS011;44276;49.534;6.378;2022-07-06T08:17:46;2.83;;;0.68;;
53775;SDS011;44276;49.534;6.378;2022-07-06T08:20:14;1.50;;;1.02;;
53775;SDS011;44276;49.534;6.378;2022-07-06T08:22:43;2.83;;;1.10;;
53775;SDS011;44276;49.534;6.378;2022-07-06T08:25:12;2.15;;;0.60;;
53775;SDS011;44276;49.534;6.378;2022-07-06T08:27:40;2.42;;;0.90;;
53775;SDS011;44276;49.534;6.378;2022-07-06T08:30:09;1.85;;;0.68;;
53775;SDS011;44276;49.534;6.378;2022-07-06T08:32:39;1.58;;;0.50;;
53775;SDS011;44276;49.534;6.378;2022-07-06T08:35:28;3.10;;;0.88;;
53775;SDS011;44276;49.534;6.378;2022-07-06T08:37:57;4.00;;;0.80;;
53775;SDS011;44276;49.534;6.378;2022-07-06T08:40:27;2.97;;;0.50;;
53775;SDS011;44276;49.534;6.378;2022-07-06T08:43:02;1.92;;;0.68;;
53775;SDS011;44276;49.534;6.378;2022-07-06T08:45:30;2.08;;;0.60;;
53775;SDS011;44276;49.534;6.378;2022-07-06T08:48:03;4.25;;;0.60;;
53775;SDS011;44276;49.534;6.378;2022-07-06T08:50:34;1.92;;;1.25;;
53775;SDS011;44276;49.534;6.378;2022-07-06T08:53:02;1.63;;;0.80;;
53775;SDS011;44276;49.534;6.378;2022-07-06T08:55:32;0.82;;;0.47;;
53775;SDS011;44276;49.534;6.378;2022-07-06T08:58:02;3.88;;;0.57;;
53775;SDS011;44276;49.534;6.378;2022-07-06T09:00:32;2.80;;;0.40;;
53775;SDS011;44276;49.534;6.378;2022-07-06T09:03:02;1.30;;;0.52;;
53775;SDS011;44276;49.534;6.378;2022-07-06T09:05:32;4.32;;;0.75;;
53775;SDS011;44276;49.534;6.378;2022-07-06T09:08:02;1.27;;;0.50;;
53775;SDS011;44276;49.534;6.378;2022-07-06T09:10:32;1.05;;;0.80;;
53775;SDS011;44276;49.534;6.378;2022-07-06T09:13:04;3.17;;;0.80;;
53775;SDS011;44276;49.534;6.378;2022-07-06T09:15:35;4.93;;;0.50;;
53775;SDS011;44276;49.534;6.378;2022-07-06T09:18:05;1.73;;;0.63;;
53775;SDS011;44276;49.534;6.378;2022-07-06T09:20:35;2.88;;;0.60;;
53775;SDS011;44276;49.534;6.378;2022-07-06T09:23:03;0.93;;;0.50;;
53775;SDS011;44276;49.534;6.378;2022-07-06T09:25:42;5.32;;;0.85;;
53775;SDS011;44276;49.534;6.378;2022-07-06T09:28:16;2.00;;;0.60;;
53775;SDS011;44276;49.534;6.378;2022-07-06T09:30:44;1.88;;;0.40;;
53775;SDS011;44276;49.534;6.378;2022-07-06T09:33:12;2.45;;;0.50;;
53775;SDS011;44276;49.534;6.378;2022-07-06T09:35:45;4.95;;;0.70;;
53775;SDS011;44276;49.534;6.378;2022-07-06T09:38:14;2.08;;;0.63;;
53775;SDS011;44276;49.534;6.378;2022-07-06T09:40:45;2.40;;;0.68;;
53775;SDS011;44276;49.534;6.378;2022-07-06T09:43:15;5.13;;;0.50;;
53775;SDS011;44276;49.534;6.378;2022-07-06T09:45:46;2.13;;;0.47;;
53775;SDS011;44276;49.534;6.378;2022-07-06T09:48:17;2.72;;;0.50;;
53775;SDS011;44276;49.534;6.378;2022-07-06T09:50:49;1.95;;;0.60;;
53775;SDS011;44276;49.534;6.378;2022-07-06T09:53:20;3.05;;;1.17;;
53775;SDS011;44276;49.534;6.378;2022-07-06T09:55:52;1.33;;;0.60;;
53775;SDS011;44276;49.534;6.378;2022-07-06T09:58:24;2.53;;;0.40;;
53775;SDS011;44276;49.534;6.378;2022-07-06T10:01:12;1.98;;;1.27;;
53775;SDS011;44276;49.534;6.378;2022-07-06T10:03:55;2.75;;;0.43;;
53775;SDS011;44276;49.534;6.378;2022-07-06T10:06:24;1.80;;;0.30;;
53775;SDS011;44276;49.534;6.378;2022-07-06T10:08:53;1.42;;;0.40;;
53775;SDS011;44276;49.534;6.378;2022-07-06T10:11:25;2.47;;;0.47;;
53775;SDS011;44276;49.534;6.378;2022-07-06T10:13:57;2.08;;;0.60;;
53775;SDS011;44276;49.534;6.378;2022-07-06T10:16:32;3.20;;;0.40;;
53775;SDS011;44276;49.534;6.378;2022-07-06T10:19:05;2.70;;;0.40;;
53775;SDS011;44276;49.534;6.378;2022-07-06T10:21:35;3.45;;;0.75;;
53775;SDS011;44276;49.534;6.378;2022-07-06T10:24:07;2.03;;;0.40;;
53775;SDS011;44276;49.534;6.378;2022-07-06T10:26:38;2.35;;;0.40;;
53775;SDS011;44276;49.534;6.378;2022-07-06T10:29:08;2.08;;;0.40;;
53775;SDS011;44276;49.534;6.378;2022-07-06T10:31:37;3.00;;;0.70;;
53775;SDS011;44276;49.534;6.378;2022-07-06T10:34:11;4.15;;;0.52;;
53775;SDS011;44276;49.534;6.378;2022-07-06T10:36:43;1.10;;;0.32;;
53775;SDS011;44276;49.534;6.378;2022-07-06T10:39:16;1.40;;;0.30;;
53775;SDS011;44276;49.534;6.378;2022-07-06T10:42:39;2.83;;;0.32;;
53775;SDS011;44276;49.534;6.378;2022-07-06T10:45:13;1.00;;;0.35;;
53775;SDS011;44276;49.534;6.378;2022-07-06T10:47:46;2.20;;;0.28;;
53775;SDS011;44276;49.534;6.378;2022-07-06T10:50:14;2.80;;;0.70;;
53775;SDS011;44276;49.534;6.378;2022-07-06T10:52:52;0.40;;;0.40;;
53775;SDS011;44276;49.534;6.378;2022-07-06T10:55:28;1.50;;;0.88;;
53775;SDS011;44276;49.534;6.378;2022-07-06T10:58:00;1.63;;;0.30;;
53775;SDS011;44276;49.534;6.378;2022-07-06T11:00:48;0.63;;;0.30;;
53775;SDS011;44276;49.534;6.378;2022-07-06T11:03:34;6.25;;;0.50;;
53775;SDS011;44276;49.534;6.378;2022-07-06T11:06:05;0.75;;;0.38;;
53775;SDS011;44276;49.534;6.378;2022-07-06T11:08:43;1.02;;;0.32;;
53775;SDS011;44276;49.534;6.378;2022-07-06T11:11:24;2.30;;;0.50;;
53775;SDS011;44276;49.534;6.378;2022-07-06T11:13:56;0.60;;;0.20;;
53775;SDS011;44276;49.534;6.378;2022-07-06T11:16:28;2.35;;;0.30;;
53775;SDS011;44276;49.534;6.378;2022-07-06T11:19:08;2.58;;;0.30;;
53775;SDS011;44276;49.534;6.378;2022-07-06T11:21:39;1.23;;;0.50;;
53775;SDS011;44276;49.534;6.378;2022-07-06T11:24:13;0.65;;;0.30;;
53775;SDS011;44276;49.534;6.378;2022-07-06T11:26:44;1.55;;;0.45;;
53775;SDS011;44276;49.534;6.378;2022-07-06T11:29:16;3.78;;;0.40;;
53775;SDS011;44276;49.534;6.378;2022-07-06T11:31:47;1.23;;;0.50;;
53775;SDS011;44276;49.534;6.378;2022-07-06T11:34:19;0.80;;;0.40;;
53775;SDS011;44276;49.534;6.378;2022-07-06T11:36:49;0.57;;;0.20;;
53775;SDS011;44276;49.534;6.378;2022-07-06T11:39:25;0.70;;;0.40;;
53775;SDS011;44276;49.534;6.378;2022-07-06T11:41:54;1.38;;;0.20;;
53775;SDS011;44276;49.534;6.378;2022-07-06T11:44:24;1.38;;;0.98;;
53775;SDS011;44276;49.534;6.378;2022-07-06T11:46:53;1.95;;;0.30;;
53775;SDS011;44276;49.534;6.378;2022-07-06T11:49:23;5.65;;;0.50;;
53775;SDS011;44276;49.534;6.378;2022-07-06T11:51:52;1.13;;;0.20;;
53775;SDS011;44276;49.534;6.378;2022-07-06T11:54:20;4.80;;;1.05;;
53775;SDS011;44276;49.534;6.378;2022-07-06T11:56:51;1.27;;;0.20;;
53775;SDS011;44276;49.534;6.378;2022-07-06T11:59:21;4.63;;;0.43;;
53775;SDS011;44276;49.534;6.378;2022-07-06T12:01:59;1.95;;;0.30;;
53775;SDS011;44276;49.534;6.378;2022-07-06T12:04:30;2.75;;;0.43;;
53775;SDS011;44276;49.534;6.378;2022-07-06T12:07:00;0.70;;;0.28;;
53775;SDS011;44276;49.534;6.378;2022-07-06T12:09:31;3.03;;;0.50;;
53775;SDS011;44276;49.534;6.378;2022-07-06T12:11:59;0.93;;;0.40;;
53775;SDS011;44276;49.534;6.378;2022-07-06T12:14:31;0.82;;;0.20;;
53775;SDS011;44276;49.534;6.378;2022-07-06T12:17:04;3.70;;;0.38;;
53775;SDS011;44276;49.534;6.378;2022-07-06T12:19:35;3.25;;;0.35;;
53775;SDS011;44276;49.534;6.378;2022-07-06T12:22:05;1.50;;;0.30;;
53775;SDS011;44276;49.534;6.378;2022-07-06T12:24:42;3.67;;;0.45;;
53775;SDS011;44276;49.534;6.378;2022-07-06T12:27:12;2.05;;;0.30;;
53775;SDS011;44276;49.534;6.378;2022-07-06T12:29:45;5.05;;;0.50;;
53775;SDS011;44276;49.534;6.378;2022-07-06T12:32:15;0.93;;;0.30;;
53775;SDS011;44276;49.534;6.378;2022-07-06T12:34:45;4.50;;;0.47;;
53775;SDS011;44276;49.534;6.378;2022-07-06T12:37:14;2.58;;;0.65;;
53775;SDS011;44276;49.534;6.378;2022-07-06T12:39:45;1.98;;;0.60;;
53775;SDS011;44276;49.534;6.378;2022-07-06T12:42:17;3.10;;;0.30;;
53775;SDS011;44276;49.534;6.378;2022-07-06T12:44:49;1.52;;;0.35;;
53775;SDS011;44276;49.534;6.378;2022-07-06T12:47:19;1.45;;;0.57;;
53775;SDS011;44276;49.534;6.378;2022-07-06T12:50:03;1.15;;;0.57;;
53775;SDS011;44276;49.534;6.378;2022-07-06T12:52:33;4.13;;;0.47;;
53775;SDS011;44276;49.534;6.378;2022-07-06T12:55:03;5.13;;;0.45;;
53775;SDS011;44276;49.534;6.378;2022-07-06T12:57:45;1.88;;;0.52;;
53775;SDS011;44276;49.534;6.378;2022-07-06T13:00:17;4.85;;;0.40;;
53775;SDS011;44276;49.534;6.378;2022-07-06T13:02:47;2.80;;;0.30;;
53775;SDS011;44276;49.534;6.378;2022-07-06T13:05:36;1.33;;;0.45;;
53775;SDS011;44276;49.534;6.378;2022-07-06T13:08:05;1.98;;;0.65;;
53775;SDS011;44276;49.534;6.378;2022-07-06T13:10:35;2.38;;;0.32;;
53775;SDS011;44276;49.534;6.378;2022-07-06T13:13:08;5.43;;;1.15;;
53775;SDS011;44276;49.534;6.378;2022-07-06T13:15:40;2.75;;;0.35;;
53775;SDS011;44276;49.534;6.378;2022-07-06T13:18:09;2.80;;;0.40;;
53775;SDS011;44276;49.534;6.378;2022-07-06T13:20:40;0.80;;;0.40;;
53775;SDS011;44276;49.534;6.378;2022-07-06T13:23:09;3.20;;;0.40;;
53775;SDS011;44276;49.534;6.378;2022-07-06T13:25:37;1.00;;;0.40;;
53775;SDS011;44276;49.534;6.378;2022-07-06T13:28:06;1.50;;;0.40;;
53775;SDS011;44276;49.534;6.378;2022-07-06T13:30:38;1.80;;;0.40;;
53775;SDS011;44276;49.534;6.378;2022-07-06T13:33:06;4.45;;;0.55;;
53775;SDS011;44276;49.534;6.378;2022-07-06T13:35:35;2.15;;;0.30;;
53775;SDS011;44276;49.534;6.378;2022-07-06T13:38:03;2.60;;;0.40;;
53775;SDS011;44276;49.534;6.378;2022-07-06T13:40:38;1.10;;;0.55;;
53775;SDS011;44276;49.534;6.378;2022-07-06T13:43:07;1.35;;;0.80;;
53775;SDS011;44276;49.534;6.378;2022-07-06T13:45:39;2.40;;;0.50;;
53775;SDS011;44276;49.534;6.378;2022-07-06T13:48:08;1.13;;;0.30;;
53775;SDS011;44276;49.534;6.378;2022-07-06T13:50:36;1.13;;;0.90;;
53775;SDS011;44276;49.534;6.378;2022-07-06T13:53:05;1.45;;;0.60;;
53775;SDS011;44276;49.534;6.378;2022-07-06T13:55:34;1.00;;;0.45;;
53775;SDS011;44276;49.534;6.378;2022-07-06T13:58:02;4.53;;;1.27;;
53775;SDS011;44276;49.534;6.378;2022-07-06T14:00:31;1.00;;;0.40;;
53775;SDS011;44276;49.534;6.378;2022-07-06T14:03:00;1.38;;;0.30;;
53775;SDS011;44276;49.534;6.378;2022-07-06T14:05:29;2.20;;;0.50;;
53775;SDS011;44276;49.534;6.378;2022-07-06T14:07:57;2.60;;;0.73;;
53775;SDS011;44276;49.534;6.378;2022-07-06T14:10:27;0.70;;;0.35;;
53775;SDS011;44276;49.534;6.378;2022-07-06T14:12:55;1.38;;;0.40;;
53775;SDS011;44276;49.534;6.378;2022-07-06T14:15:24;5.97;;;0.98;;
53775;SDS011;44276;49.534;6.378;2022-07-06T14:17:52;1.50;;;0.63;;
53775;SDS011;44276;49.534;6.378;2022-07-06T14:20:22;5.20;;;0.65;;
53775;SDS011;44276;49.534;6.378;2022-07-06T14:22:50;2.45;;;0.60;;
53775;SDS011;44276;49.534;6.378;2022-07-06T14:25:18;2.28;;;0.70;;
53775;SDS011;44276;49.534;6.378;2022-07-06T14:27:47;2.72;;;1.00;;
53775;SDS011;44276;49.534;6.378;2022-07-06T14:30:16;1.10;;;0.50;;
53775;SDS011;44276;49.534;6.378;2022-07-06T14:32:44;2.83;;;0.70;;
53775;SDS011;44276;49.534;6.378;2022-07-06T14:35:13;3.67;;;0.52;;
53775;SDS011;44276;49.534;6.378;2022-07-06T14:37:42;1.42;;;0.40;;
53775;SDS011;44276;49.534;6.378;2022-07-06T14:40:11;6.38;;;0.70;;
53775;SDS011;44276;49.534;6.378;2022-07-06T14:42:39;2.25;;;1.02;;
53775;SDS011;44276;49.534;6.378;2022-07-06T14:45:08;2.38;;;0.50;;
53775;SDS011;44276;49.534;6.378;2022-07-06T14:47:37;0.95;;;0.47;;
53775;SDS011;44276;49.534;6.378;2022-07-06T14:50:05;2.22;;;0.88;;
53775;SDS011;44276;49.534;6.378;2022-07-06T14:52:35;1.63;;;0.57;;
53775;SDS011;44276;49.534;6.378;2022-07-06T14:55:06;1.83;;;0.50;;
53775;SDS011;44276;49.534;6.378;2022-07-06T14:57:40;1.08;;;0.40;;
53775;SDS011;44276;49.534;6.378;2022-07-06T15:00:08;2.70;;;0.55;;
53775;SDS011;44276;49.534;6.378;2022-07-06T15:02:38;6.05;;;0.60;;
53775;SDS011;44276;49.534;6.378;2022-07-06T15:05:08;1.35;;;0.47;;